Time;durP1;ratioP1;P1;durP2;ratioP2;P2;SDS_P1;SDS_P2;PMS_P1;PMS_P2;Temp;Humidity;BMP_temperature;BMP_pressure;BME280_temperature;BME280_humidity;BME280_pressure;Samples;Min_cycle;Max_cycle;Signal;HPM_P1;HPM_P2
2022/11/25 00:01:07;;;;;;;7.57;2.80;;;4.90;99.90;;;;;;5065036;28;20040;-81
2022/11/25 00:03:34;;;;;;;7.50;2.93;;;4.90;99.90;;;;;;5051479;28;20052;-81
2022/11/25 00:06:15;;;;;;;4.47;3.10;;;4.80;99.90;;;;;;5053120;28;20029;-81
2022/11/25 00:08:43;;;;;;;4.53;2.55;;;4.80;99.90;;;;;;5056325;28;20063;-80
2022/11/25 00:11:10;;;;;;;5.67;2.83;;;4.70;99.90;;;;;;5056652;28;20049;-82
2022/11/25 00:13:36;;;;;;;7.13;3.10;;;4.80;99.90;;;;;;5055312;28;20025;-83
2022/11/25 00:16:21;;;;;;;6.23;2.77;;;4.90;99.90;;;;;;5055896;28;20029;-81
2022/11/25 00:18:51;;;;;;;3.53;2.10;;;5.00;99.90;;;;;;5055686;28;20040;-80
2022/11/25 00:21:19;;;;;;;8.83;2.37;;;5.00;99.90;;;;;;5055425;28;20031;-81
2022/11/25 00:23:54;;;;;;;4.23;2.60;;;4.90;99.90;;;;;;5055657;28;20036;-81
2022/11/25 00:26:21;;;;;;;6.17;2.77;;;5.00;99.90;;;;;;5055599;28;20037;-82
2022/11/25 00:28:47;;;;;;;8.23;2.77;;;5.00;99.90;;;;;;5054651;28;20208;-83
2022/11/25 00:31:21;;;;;;;6.03;2.73;;;5.00;99.90;;;;;;5055236;28;20525;-82
2022/11/25 00:33:49;;;;;;;6.17;2.77;;;5.10;99.90;;;;;;5055491;28;20098;-83
2022/11/25 00:36:19;;;;;;;4.93;2.50;;;5.10;99.90;;;;;;5055391;28;20036;-82
2022/11/25 00:38:45;;;;;;;6.80;3.00;;;5.10;99.90;;;;;;5055354;28;20048;-81
2022/11/25 00:46:39;;;;;;;5.83;3.00;;;5.10;99.90;;;;;;5055091;28;20099;-81
2022/11/25 00:49:05;;;;;;;8.30;2.83;;;5.00;99.90;;;;;;5055790;28;20454;-83
2022/11/25 00:51:30;;;;;;;6.40;3.20;;;5.00;99.90;;;;;;5055271;28;20025;-82
2022/11/25 00:53:56;;;;;;;6.70;3.00;;;5.00;99.90;;;;;;5055979;28;20079;-82
2022/11/25 00:56:22;;;;;;;6.30;2.70;;;4.90;99.90;;;;;;5055942;28;20055;-82
2022/11/25 00:58:48;;;;;;;4.33;2.37;;;4.90;99.90;;;;;;5054100;28;20503;-80
2022/11/25 01:01:13;;;;;;;6.50;2.60;;;5.00;99.90;;;;;;5054545;28;20067;-80
2022/11/25 01:03:39;;;;;;;7.40;2.77;;;5.00;99.90;;;;;;5054929;28;20469;-80
2022/11/25 01:06:07;;;;;;;5.40;2.67;;;5.10;99.90;;;;;;5055551;28;20040;-80
2022/11/25 01:08:34;;;;;;;9.10;2.93;;;5.10;99.90;;;;;;5054022;28;20029;-80
2022/11/25 01:11:01;;;;;;;5.97;3.13;;;5.10;99.90;;;;;;5054461;28;20055;-80
2022/11/25 01:13:27;;;;;;;6.83;2.77;;;5.10;99.90;;;;;;5055463;28;20033;-78
2022/11/25 01:15:52;;;;;;;6.27;3.00;;;5.10;99.90;;;;;;5054258;28;20040;-80
2022/11/25 01:18:18;;;;;;;6.73;2.60;;;5.10;99.90;;;;;;5054099;28;20021;-80
2022/11/25 01:20:43;;;;;;;5.13;2.60;;;5.20;99.90;;;;;;5053806;28;20060;-81
2022/11/25 01:23:09;;;;;;;8.83;3.23;;;5.20;99.90;;;;;;5055453;28;20032;-80
2022/11/25 01:25:41;;;;;;;8.43;3.13;;;5.10;99.90;;;;;;5054599;28;20371;-80
2022/11/25 01:28:06;;;;;;;7.90;2.92;;;5.20;99.90;;;;;;5054295;28;20036;-80
2022/11/25 01:30:32;;;;;;;7.67;3.00;;;5.30;99.90;;;;;;5053423;28;20033;-78
2022/11/25 01:32:57;;;;;;;9.73;3.33;;;5.30;99.90;;;;;;5053746;28;20047;-79
2022/11/25 01:35:23;;;;;;;7.13;2.90;;;5.30;99.90;;;;;;5054746;28;20025;-79
2022/11/25 01:37:48;;;;;;;6.50;2.70;;;5.30;99.90;;;;;;5053018;28;20652;-79
2022/11/25 01:40:14;;;;;;;6.97;3.17;;;5.30;99.90;;;;;;5054485;28;20040;-79
2022/11/25 01:42:47;;;;;;;8.80;2.90;;;5.40;99.90;;;;;;5052732;28;20494;-79
2022/11/25 01:45:22;;;;;;;7.13;2.57;;;5.40;99.90;;;;;;5053714;28;20036;-79
2022/11/25 01:47:55;;;;;;;5.47;2.57;;;5.30;99.90;;;;;;5053803;28;20025;-78
2022/11/25 01:50:25;;;;;;;5.93;2.77;;;5.30;99.90;;;;;;5053705;28;20028;-77
2022/11/25 01:52:54;;;;;;;7.17;3.00;;;5.30;99.90;;;;;;5054169;28;20043;-81
2022/11/25 01:55:33;;;;;;;7.07;2.83;;;5.30;99.90;;;;;;5054620;28;20032;-80
2022/11/25 01:58:04;;;;;;;6.73;2.77;;;5.20;99.90;;;;;;5054619;28;20124;-81
2022/11/25 02:00:30;;;;;;;8.18;3.13;;;5.20;99.90;;;;;;5054525;28;20036;-76
2022/11/25 02:02:57;;;;;;;10.03;3.43;;;5.20;99.90;;;;;;5054535;28;20029;-81
2022/11/25 02:05:41;;;;;;;7.67;3.57;;;5.10;99.90;;;;;;5053244;28;20082;-81
2022/11/25 02:08:07;;;;;;;10.87;4.10;;;5.10;99.90;;;;;;5053472;28;20111;-82
2022/11/25 02:10:33;;;;;;;9.10;3.77;;;5.20;99.90;;;;;;5052940;28;20125;-77
2022/11/25 02:12:59;;;;;;;9.67;3.97;;;5.10;99.90;;;;;;5054465;28;20107;-81
2022/11/25 02:15:25;;;;;;;8.30;3.63;;;5.20;99.90;;;;;;5054255;28;20080;-80
2022/11/25 02:17:51;;;;;;;9.87;3.63;;;5.20;99.90;;;;;;5053745;28;20116;-81
2022/11/25 02:20:19;;;;;;;10.27;3.30;;;5.20;99.90;;;;;;5053275;28;20116;-80
2022/11/25 02:23:00;;;;;;;8.83;3.70;;;5.20;99.90;;;;;;5052829;28;20104;-80
2022/11/25 02:25:29;;;;;;;11.30;3.20;;;5.30;99.90;;;;;;5053004;28;20049;-80
2022/11/25 02:28:12;;;;;;;11.13;3.43;;;5.30;99.90;;;;;;5052788;28;20079;-80
2022/11/25 02:30:38;;;;;;;8.63;3.47;;;5.40;99.90;;;;;;5052044;28;20021;-80
2022/11/25 02:33:04;;;;;;;10.93;2.90;;;5.40;99.90;;;;;;5053059;28;20059;-79
2022/11/25 02:35:37;;;;;;;6.43;3.10;;;5.40;99.90;;;;;;5054009;28;20045;-80
2022/11/25 02:38:19;;;;;;;7.47;2.90;;;5.40;99.90;;;;;;5052840;28;20110;-80
2022/11/25 02:41:04;;;;;;;8.10;3.05;;;5.40;99.90;;;;;;5052827;28;20035;-80
2022/11/25 02:43:30;;;;;;;7.97;2.70;;;5.30;99.90;;;;;;5052836;28;20082;-80
2022/11/25 02:45:58;;;;;;;7.17;2.30;;;5.20;99.90;;;;;;5052056;28;20037;-79
2022/11/25 02:48:25;;;;;;;7.23;2.90;;;5.20;99.90;;;;;;5053559;28;20485;-80
2022/11/25 02:50:50;;;;;;;5.80;2.63;;;5.20;99.90;;;;;;5052685;28;20025;-80
2022/11/25 02:53:16;;;;;;;6.77;2.90;;;5.20;99.90;;;;;;5052557;28;20107;-80
2022/11/25 02:55:42;;;;;;;5.63;2.83;;;5.10;99.90;;;;;;5051999;28;20088;-80
2022/11/25 02:58:08;;;;;;;5.03;2.47;;;5.10;99.90;;;;;;5053715;28;20025;-80
2022/11/25 03:00:34;;;;;;;3.90;2.30;;;5.20;99.90;;;;;;5052058;28;20040;-80
2022/11/25 03:03:00;;;;;;;5.63;2.33;;;5.20;99.90;;;;;;5053609;28;20029;-80
2022/11/25 03:05:25;;;;;;;7.23;2.83;;;5.10;99.90;;;;;;5053496;28;20036;-81
2022/11/25 03:07:51;;;;;;;5.63;2.33;;;5.10;99.90;;;;;;5051911;28;20122;-80
2022/11/25 03:10:17;;;;;;;7.40;2.37;;;5.10;99.90;;;;;;5052292;28;20021;-80
2022/11/25 03:12:42;;;;;;;6.90;2.70;;;5.10;99.90;;;;;;5051437;28;20075;-80
2022/11/25 03:15:09;;;;;;;6.13;2.37;;;5.10;99.90;;;;;;5053229;28;20470;-80
2022/11/25 03:17:34;;;;;;;5.13;2.10;;;5.00;99.90;;;;;;5052002;28;20029;-76
2022/11/25 03:20:00;;;;;;;5.53;2.00;;;5.00;99.90;;;;;;5051967;28;20025;-79
2022/11/25 03:22:26;;;;;;;7.97;2.47;;;4.90;99.90;;;;;;5052111;28;20115;-80
2022/11/25 03:24:51;;;;;;;4.83;2.07;;;4.90;99.90;;;;;;5052713;28;20108;-79
2022/11/25 03:27:17;;;;;;;5.73;2.33;;;4.90;99.90;;;;;;5052159;28;20025;-80
2022/11/25 03:29:42;;;;;;;7.67;2.47;;;5.00;99.90;;;;;;5052475;28;20107;-83
2022/11/25 03:32:08;;;;;;;6.23;2.67;;;5.00;99.90;;;;;;5053316;28;20443;-83
2022/11/25 03:34:34;;;;;;;5.50;2.10;;;4.90;99.90;;;;;;5052462;28;20029;-83
2022/11/25 03:36:59;;;;;;;6.20;2.23;;;5.00;99.90;;;;;;5052527;28;20021;-83
2022/11/25 03:39:25;;;;;;;5.17;2.37;;;5.00;99.90;;;;;;5052418;28;20060;-83
2022/11/25 03:41:50;;;;;;;9.77;2.33;;;5.10;99.90;;;;;;5055515;28;20043;-82
2022/11/25 03:44:16;;;;;;;6.10;2.20;;;5.10;99.90;;;;;;5056470;28;20028;-80
2022/11/25 03:46:42;;;;;;;5.73;2.13;;;5.10;99.90;;;;;;5056489;28;20029;-80
2022/11/25 03:49:07;;;;;;;5.67;2.00;;;5.10;99.90;;;;;;5056137;28;20424;-81
2022/11/25 03:51:33;;;;;;;5.87;2.13;;;5.10;99.90;;;;;;5056770;28;20036;-80
2022/11/25 03:53:58;;;;;;;8.23;2.23;;;5.00;99.90;;;;;;5055311;28;20025;-80
2022/11/25 03:56:24;;;;;;;9.20;2.40;;;5.00;99.90;;;;;;5055808;28;20082;-81
2022/11/25 03:58:49;;;;;;;4.97;2.00;;;4.90;99.90;;;;;;5055396;28;20025;-81
2022/11/25 04:01:15;;;;;;;4.37;2.10;;;4.90;99.90;;;;;;5055717;28;20390;-81
2022/11/25 04:03:41;;;;;;;7.03;2.17;;;4.80;99.90;;;;;;5056130;28;20024;-78
2022/11/25 04:06:06;;;;;;;3.50;2.00;;;4.80;99.90;;;;;;5056834;28;20060;-81
2022/11/25 04:08:32;;;;;;;5.17;2.10;;;4.80;99.90;;;;;;5056113;28;20060;-82
2022/11/25 04:10:58;;;;;;;6.00;1.97;;;4.80;99.90;;;;;;5054711;28;20186;-82
2022/11/25 04:13:23;;;;;;;6.07;2.20;;;4.80;99.90;;;;;;5056804;28;20468;-81
2022/11/25 04:15:50;;;;;;;4.37;2.17;;;4.80;99.90;;;;;;5056001;28;20025;-81
2022/11/25 04:18:17;;;;;;;5.77;2.20;;;4.80;99.90;;;;;;5055385;28;20063;-82
2022/11/25 04:20:45;;;;;;;6.77;2.20;;;4.80;99.90;;;;;;5055400;28;20208;-81
2022/11/25 04:23:11;;;;;;;4.97;1.90;;;4.80;99.90;;;;;;5055467;28;20036;-84
2022/11/25 04:25:37;;;;;;;5.83;1.90;;;4.80;99.90;;;;;;5055343;28;20032;-82
2022/11/25 04:28:04;;;;;;;5.40;2.20;;;4.80;99.90;;;;;;5054706;28;20032;-83
2022/11/25 04:30:30;;;;;;;5.17;1.83;;;4.70;99.90;;;;;;5055384;28;20036;-82
2022/11/25 04:32:56;;;;;;;4.03;2.20;;;4.70;99.90;;;;;;5055779;28;20075;-82
2022/11/25 04:35:21;;;;;;;4.83;2.37;;;4.70;99.90;;;;;;5055227;28;20078;-82
2022/11/25 04:37:47;;;;;;;4.13;2.43;;;4.70;99.90;;;;;;5054358;28;20025;-82
2022/11/25 04:40:13;;;;;;;3.03;1.90;;;4.70;99.90;;;;;;5056516;28;20446;-82
2022/11/25 04:42:38;;;;;;;10.20;1.97;;;4.70;99.90;;;;;;5054957;28;20033;-80
2022/11/25 04:45:10;;;;;;;3.00;1.80;;;4.70;99.90;;;;;;5054166;28;20496;-83
2022/11/25 04:47:37;;;;;;;5.72;2.08;;;4.70;99.90;;;;;;5055995;28;20033;-83
2022/11/25 04:50:05;;;;;;;4.40;2.00;;;4.70;99.90;;;;;;5055457;28;20036;-83
2022/11/25 04:52:32;;;;;;;3.67;1.87;;;4.70;99.90;;;;;;5054205;28;20029;-83
2022/11/25 04:54:58;;;;;;;3.30;1.77;;;4.60;99.90;;;;;;5054166;28;20528;-82
2022/11/25 04:57:24;;;;;;;5.53;2.00;;;4.60;99.90;;;;;;5056184;28;20025;-83
2022/11/25 04:59:49;;;;;;;6.17;2.20;;;4.60;99.90;;;;;;5054111;28;20473;-83
2022/11/25 05:02:24;;;;;;;4.70;1.60;;;4.60;99.90;;;;;;5055581;28;20100;-83
2022/11/25 05:04:52;;;;;;;5.77;2.47;;;4.60;99.90;;;;;;5053863;28;20043;-82
2022/11/25 05:07:19;;;;;;;6.80;2.47;;;4.60;99.90;;;;;;5055657;28;20549;-83
2022/11/25 05:09:45;;;;;;;10.27;3.80;;;4.50;99.90;;;;;;5054929;28;20024;-77
2022/11/25 05:12:14;;;;;;;6.13;2.63;;;4.50;99.90;;;;;;5054847;28;20049;-82
2022/11/25 05:14:40;;;;;;;5.87;2.60;;;4.50;99.90;;;;;;5055449;28;20033;-82
2022/11/25 05:17:06;;;;;;;5.43;2.20;;;4.50;99.90;;;;;;5054772;28;20048;-82
2022/11/25 05:19:34;;;;;;;9.67;2.90;;;4.50;99.90;;;;;;5054656;28;20454;-82
2022/11/25 05:22:00;;;;;;;5.73;2.30;;;4.50;99.90;;;;;;5053759;28;20025;-83
2022/11/25 05:24:26;;;;;;;3.70;2.37;;;4.50;99.90;;;;;;5054059;28;20110;-82
2022/11/25 05:26:51;;;;;;;7.67;2.83;;;4.50;99.90;;;;;;5053418;28;20025;-82
2022/11/25 05:29:17;;;;;;;7.30;2.83;;;4.50;99.90;;;;;;5055649;28;20441;-83
2022/11/25 05:31:43;;;;;;;5.70;2.23;;;4.40;99.90;;;;;;5054960;28;20025;-76
2022/11/25 05:34:08;;;;;;;7.17;2.23;;;4.40;99.90;;;;;;5053869;28;20025;-82
2022/11/25 05:36:34;;;;;;;5.67;2.30;;;4.40;99.90;;;;;;5053910;28;20033;-82
2022/11/25 05:39:00;;;;;;;4.40;2.10;;;4.30;99.90;;;;;;5053535;28;20107;-83
2022/11/25 05:41:25;;;;;;;8.80;2.50;;;4.30;99.90;;;;;;5054206;28;20084;-82
2022/11/25 05:43:51;;;;;;;7.10;2.63;;;4.20;99.90;;;;;;5053431;28;20112;-82
2022/11/25 05:46:17;;;;;;;10.67;2.50;;;4.20;99.90;;;;;;5054387;28;20497;-82
2022/11/25 05:48:43;;;;;;;5.67;2.23;;;4.20;99.90;;;;;;5055107;28;20104;-77
2022/11/25 05:51:08;;;;;;;2.27;1.80;;;4.20;99.90;;;;;;5054728;28;20056;-84
2022/11/25 05:53:35;;;;;;;4.53;2.07;;;4.20;99.90;;;;;;5054427;28;20033;-83
2022/11/25 05:56:05;;;;;;;6.70;2.20;;;4.30;99.90;;;;;;5053391;28;20040;-83
2022/11/25 05:58:31;;;;;;;5.80;2.10;;;4.30;99.90;;;;;;5053965;28;20028;-82
2022/11/25 06:00:57;;;;;;;4.73;1.87;;;4.30;99.90;;;;;;5054110;28;20060;-83
2022/11/25 06:03:24;;;;;;;4.30;1.87;;;4.30;99.90;;;;;;5052835;28;20535;-81
2022/11/25 06:05:49;;;;;;;3.87;2.00;;;4.30;99.90;;;;;;5053712;28;20040;-81
2022/11/25 06:08:15;;;;;;;3.80;1.90;;;4.30;99.90;;;;;;5053700;28;20029;-80
2022/11/25 06:10:41;;;;;;;4.80;1.93;;;4.30;99.90;;;;;;5053248;28;20025;-81
2022/11/25 06:13:08;;;;;;;4.90;2.20;;;4.40;99.90;;;;;;5052560;28;20035;-82
2022/11/25 06:15:39;;;;;;;4.87;1.90;;;4.40;99.90;;;;;;5053556;28;20053;-82
2022/11/25 06:18:05;;;;;;;4.70;2.20;;;4.50;99.90;;;;;;5052658;28;20871;-82
2022/11/25 06:20:30;;;;;;;4.17;1.83;;;4.40;99.90;;;;;;5053316;28;20056;-82
2022/11/25 06:22:57;;;;;;;3.63;1.70;;;4.40;99.90;;;;;;5046374;28;20028;-83
2022/11/25 06:25:23;;;;;;;4.43;2.23;;;4.40;99.90;;;;;;5051197;28;20029;-84
2022/11/25 06:27:49;;;;;;;9.80;3.17;;;4.40;99.90;;;;;;5071155;28;20469;-77
2022/11/25 06:30:15;;;;;;;9.13;4.00;;;4.40;99.90;;;;;;5054690;28;20063;-82
2022/11/25 06:32:40;;;;;;;8.23;3.20;;;4.40;99.90;;;;;;5052263;28;20025;-82
2022/11/25 06:35:06;;;;;;;7.50;3.10;;;4.40;99.90;;;;;;5054017;28;20035;-82
2022/11/25 06:37:32;;;;;;;4.40;1.93;;;4.40;99.90;;;;;;5068598;28;20461;-80
2022/11/25 06:39:58;;;;;;;9.47;3.37;;;4.50;99.90;;;;;;5055059;28;20024;-80
2022/11/25 06:42:24;;;;;;;4.17;2.27;;;4.50;99.90;;;;;;5067235;28;20109;-80
2022/11/25 06:44:49;;;;;;;6.57;2.93;;;4.60;99.90;;;;;;5061197;28;20048;-78
2022/11/25 06:47:15;;;;;;;9.30;3.57;;;4.70;99.90;;;;;;5067134;28;20110;-81
2022/11/25 06:49:41;;;;;;;8.33;3.20;;;4.70;99.90;;;;;;5072577;28;20477;-81
2022/11/25 06:52:06;;;;;;;7.57;3.90;;;4.80;99.90;;;;;;5052637;28;20031;-81
2022/11/25 06:54:32;;;;;;;5.60;3.77;;;4.80;99.90;;;;;;5053577;28;20086;-81
2022/11/25 06:56:58;;;;;;;6.37;3.47;;;4.80;99.90;;;;;;5063823;28;20032;-81
2022/11/25 06:59:23;;;;;;;6.10;3.43;;;4.80;99.90;;;;;;5057193;28;20494;-81
2022/11/25 07:01:49;;;;;;;6.57;3.70;;;4.90;99.90;;;;;;5067716;28;20035;-77
2022/11/25 07:04:15;;;;;;;8.97;3.27;;;4.90;99.90;;;;;;5058395;28;20024;-81
2022/11/25 07:06:40;;;;;;;6.23;3.53;;;4.90;99.90;;;;;;5064045;28;20048;-81
2022/11/25 07:09:06;;;;;;;8.60;3.33;;;4.90;99.90;;;;;;5052316;28;20032;-81
2022/11/25 07:11:34;;;;;;;6.27;2.87;;;5.00;99.90;;;;;;5068150;28;20068;-82
2022/11/25 07:14:03;;;;;;;5.80;2.67;;;5.00;99.90;;;;;;5037789;28;20485;-80
2022/11/25 07:16:29;;;;;;;6.97;3.00;;;5.10;99.90;;;;;;5064062;28;20060;-81
2022/11/25 07:18:55;;;;;;;7.37;2.67;;;5.10;99.90;;;;;;5050938;28;20040;-81
2022/11/25 07:21:23;;;;;;;7.80;3.23;;;5.10;99.90;;;;;;5067171;28;20033;-81
2022/11/25 07:23:49;;;;;;;4.47;2.97;;;5.10;99.90;;;;;;5050421;28;20378;-78
2022/11/25 07:26:17;;;;;;;8.27;3.00;;;5.20;99.90;;;;;;5065808;28;20032;-80
2022/11/25 07:28:43;;;;;;;5.47;2.57;;;5.20;99.90;;;;;;5060964;28;20029;-81
2022/11/25 07:31:13;;;;;;;5.70;2.70;;;5.20;99.90;;;;;;5071782;28;20466;-80
2022/11/25 07:33:39;;;;;;;6.13;2.30;;;5.20;99.90;;;;;;5055949;28;20454;-80
2022/11/25 07:36:07;;;;;;;5.33;2.43;;;5.30;99.90;;;;;;5067603;28;20059;-80
2022/11/25 07:38:35;;;;;;;6.10;2.17;;;5.30;99.90;;;;;;5059689;28;20027;-81
2022/11/25 07:41:06;;;;;;;6.10;2.27;;;5.40;99.90;;;;;;5060497;28;20033;-82
2022/11/25 07:43:32;;;;;;;8.95;2.47;;;5.40;99.90;;;;;;5067989;28;20063;-83
2022/11/25 07:46:32;;;;;;;8.00;2.57;;;5.50;99.90;;;;;;5054361;28;20033;-83
2022/11/25 07:49:00;;;;;;;11.57;2.33;;;5.50;99.90;;;;;;5056535;28;20158;-82
2022/11/25 07:51:30;;;;;;;5.03;2.37;;;5.50;99.90;;;;;;5067203;28;20031;-82
2022/11/25 07:53:57;;;;;;;8.07;2.47;;;5.60;99.90;;;;;;5041921;28;20044;-82
2022/11/25 07:56:23;;;;;;;7.67;2.27;;;5.70;99.90;;;;;;5064627;28;20025;-82
2022/11/25 07:58:49;;;;;;;5.37;2.43;;;5.70;99.90;;;;;;5061393;28;20028;-78
2022/11/25 08:01:17;;;;;;;5.83;2.30;;;5.70;99.90;;;;;;5057463;28;20125;-81
2022/11/25 08:03:43;;;;;;;3.97;2.07;;;5.70;99.90;;;;;;5067890;28;20090;-81
2022/11/25 08:06:12;;;;;;;7.67;2.40;;;5.80;99.90;;;;;;5047234;28;20672;-82
2022/11/25 08:08:40;;;;;;;9.10;2.37;;;5.80;99.90;;;;;;5061437;28;20582;-82
2022/11/25 08:11:16;;;;;;;7.03;2.47;;;5.90;99.90;;;;;;5058035;28;20048;-83
2022/11/25 08:13:42;;;;;;;4.43;1.83;;;6.00;99.90;;;;;;5069289;28;20033;-82
2022/11/25 08:16:09;;;;;;;7.47;3.00;;;6.00;99.90;;;;;;5055183;28;20541;-82
2022/11/25 08:18:35;;;;;;;6.97;2.40;;;6.10;99.90;;;;;;5070031;28;20461;-82
2022/11/25 08:21:03;;;;;;;7.43;3.67;;;6.20;99.90;;;;;;5071814;28;20029;-82
2022/11/25 08:23:29;;;;;;;14.67;4.93;;;6.20;99.90;;;;;;5055452;28;20112;-83
2022/11/25 08:25:55;;;;;;;12.57;4.50;;;6.30;99.90;;;;;;5068062;28;20040;-84
2022/11/25 08:28:21;;;;;;;14.07;4.73;;;6.20;99.90;;;;;;5060635;28;20024;-84
2022/11/25 08:30:47;;;;;;;7.83;3.70;;;6.30;99.90;;;;;;5064801;28;20032;-79
2022/11/25 08:33:12;;;;;;;9.90;3.50;;;6.20;99.90;;;;;;5067587;28;20028;-81
2022/11/25 08:35:38;;;;;;;5.50;2.70;;;6.20;99.90;;;;;;5057977;28;20036;-81
2022/11/25 08:38:08;;;;;;;5.00;2.40;;;6.30;99.90;;;;;;5069953;28;20137;-82
2022/11/25 08:40:36;;;;;;;6.13;2.50;;;6.30;99.90;;;;;;5055428;28;20032;-83
2022/11/25 08:43:03;;;;;;;7.10;2.03;;;6.30;99.90;;;;;;5067312;28;20055;-83
2022/11/25 08:45:29;;;;;;;5.10;2.17;;;6.30;99.90;;;;;;5074603;28;20040;-84
2022/11/25 08:47:55;;;;;;;4.50;1.80;;;6.30;99.90;;;;;;5058283;28;20461;-83
2022/11/25 08:50:23;;;;;;;4.50;2.33;;;6.30;99.90;;;;;;5069126;28;20075;-84
2022/11/25 08:52:49;;;;;;;10.53;2.13;;;6.40;99.90;;;;;;5057975;28;20037;-79
2022/11/25 08:55:14;;;;;;;6.57;2.17;;;6.40;99.90;;;;;;5068848;28;20054;-84
2022/11/25 08:57:40;;;;;;;7.63;2.50;;;6.40;99.90;;;;;;5058910;28;20082;-83
2022/11/25 09:00:07;;;;;;;5.07;2.50;;;6.50;99.90;;;;;;5070382;28;20028;-84
2022/11/25 09:02:32;;;;;;;6.53;2.70;;;6.50;99.90;;;;;;5062649;28;20024;-85
2022/11/25 09:04:58;;;;;;;6.93;2.27;;;6.60;99.90;;;;;;5062292;28;20043;-85
2022/11/25 09:07:23;;;;;;;9.47;2.50;;;6.60;99.90;;;;;;5069445;28;20071;-85
2022/11/25 09:09:49;;;;;;;7.40;2.30;;;6.70;99.90;;;;;;5071948;28;20131;-79
2022/11/25 09:12:15;;;;;;;4.23;2.17;;;6.70;99.90;;;;;;5058786;28;20051;-83
2022/11/25 09:14:40;;;;;;;7.33;2.70;;;6.80;99.90;;;;;;5074279;28;20389;-83
2022/11/25 09:17:15;;;;;;;4.90;2.90;;;6.80;99.90;;;;;;5061846;28;20462;-81
2022/11/25 09:19:41;;;;;;;7.17;2.67;;;6.90;99.90;;;;;;5071781;28;20070;-80
2022/11/25 09:22:07;;;;;;;6.23;2.20;;;6.90;99.90;;;;;;5059179;28;20423;-81
2022/11/25 09:24:34;;;;;;;8.33;2.30;;;7.00;99.90;;;;;;5056066;28;20032;-83
2022/11/25 09:26:59;;;;;;;8.57;3.43;;;7.00;99.90;;;;;;5052537;28;20052;-84
2022/11/25 09:29:26;;;;;;;5.20;1.90;;;7.10;99.90;;;;;;5055500;28;20098;-85
2022/11/25 09:31:52;;;;;;;7.00;2.10;;;7.10;99.90;;;;;;5053883;28;20017;-79
2022/11/25 09:34:18;;;;;;;6.27;2.67;;;7.20;99.90;;;;;;5055069;28;20021;-83
2022/11/25 09:36:44;;;;;;;5.53;2.10;;;7.20;99.90;;;;;;5054790;28;20060;-82
2022/11/25 09:39:09;;;;;;;7.27;2.10;;;7.30;99.90;;;;;;5053298;28;20033;-81
2022/11/25 09:47:49;;;;;;;4.37;2.00;;;7.40;99.90;;;;;;5052239;28;20040;-81
2022/11/25 09:50:23;;;;;;;6.50;2.53;;;7.50;99.90;;;;;;5062377;28;20039;-83
2022/11/25 09:53:26;;;;;;;9.85;2.67;;;7.50;99.90;;;;;;5061965;28;20029;-88
2022/11/25 09:55:57;;;;;;;6.00;2.42;;;7.50;99.90;;;;;;5070758;28;20029;-79
2022/11/25 09:58:35;;;;;;;7.80;2.40;;;7.50;99.90;;;;;;5054796;28;20445;-77
2022/11/25 10:01:15;;;;;;;5.47;2.23;;;7.50;99.90;;;;;;5049989;28;20035;-77
2022/11/25 10:03:55;;;;;;;4.37;2.50;;;7.50;99.90;;;;;;5052719;28;20482;-77
2022/11/25 10:06:35;;;;;;;8.60;2.40;;;7.50;99.90;;;;;;5051236;28;20025;-78
2022/11/25 10:09:10;;;;;;;6.53;2.50;;;7.60;99.90;;;;;;5054551;28;20027;-79
2022/11/25 10:11:58;;;;;;;4.63;2.38;;;7.50;99.90;;;;;;5062518;28;20045;-77
2022/11/25 10:14:38;;;;;;;10.77;2.95;;;7.50;99.90;;;;;;5055066;28;20587;-79
2022/11/25 10:17:03;;;;;;;11.00;2.60;;;7.60;99.90;;;;;;5052942;28;20462;-84
2022/11/25 10:19:48;;;;;;;7.57;2.95;;;7.60;99.90;;;;;;5058063;28;20028;-85
2022/11/25 10:22:25;;;;;;;4.65;2.80;;;7.60;99.90;;;;;;5055467;28;20430;-84
2022/11/25 10:25:05;;;;;;;5.35;3.17;;;7.60;99.90;;;;;;5060435;28;20024;-79
2022/11/25 10:27:55;;;;;;;11.05;3.13;;;7.60;99.90;;;;;;5061435;28;20028;-80
2022/11/25 10:30:37;;;;;;;9.82;2.95;;;7.70;99.90;;;;;;5052611;28;20092;-84
2022/11/25 10:33:12;;;;;;;6.03;2.85;;;7.70;99.90;;;;;;5061032;28;20032;-80
2022/11/25 10:35:45;;;;;;;4.30;2.80;;;7.80;99.90;;;;;;5063503;28;20075;-79
2022/11/25 10:38:17;;;;;;;10.95;3.03;;;7.80;99.90;;;;;;5060689;28;20672;-80
2022/11/25 10:40:47;;;;;;;8.32;3.17;;;7.80;99.90;;;;;;5053745;28;20371;-80
2022/11/25 10:43:13;;;;;;;11.90;3.17;;;7.80;99.90;;;;;;5039694;28;20040;-80
2022/11/25 10:46:08;;;;;;;8.70;3.20;;;7.90;99.90;;;;;;5059001;28;20153;-81
2022/11/25 10:48:59;;;;;;;6.82;3.22;;;7.90;99.90;;;;;;5063097;28;20553;-78
2022/11/25 10:51:39;;;;;;;8.55;2.85;;;7.90;99.90;;;;;;5057032;28;20021;-81
2022/11/25 10:54:18;;;;;;;6.28;2.90;;;8.00;99.90;;;;;;5055415;28;20025;-78
2022/11/25 10:57:02;;;;;;;10.50;2.83;;;7.90;99.90;;;;;;5054518;28;20128;-77
2022/11/25 10:59:34;;;;;;;6.28;3.22;;;8.00;99.90;;;;;;5067228;28;20078;-80
2022/11/25 11:02:24;;;;;;;7.25;3.22;;;8.00;99.90;;;;;;5058555;28;20013;-78
2022/11/25 11:05:01;;;;;;;14.27;4.10;;;8.00;99.90;;;;;;5060130;28;20581;-76
2022/11/25 11:07:31;;;;;;;11.68;4.10;;;8.10;99.90;;;;;;5062619;28;20500;-78
2022/11/25 11:10:24;;;;;;;10.82;3.72;;;8.10;99.90;;;;;;5052055;28;20537;-79
2022/11/25 11:13:01;;;;;;;6.80;3.83;;;8.30;99.90;;;;;;5068430;28;20045;-75
2022/11/25 11:15:29;;;;;;;12.20;3.58;;;8.30;99.90;;;;;;5060625;28;20021;-78
2022/11/25 11:17:55;;;;;;;6.88;3.33;;;8.40;99.90;;;;;;5063478;28;20466;-77
2022/11/25 11:20:22;;;;;;;10.73;3.40;;;8.40;99.90;;;;;;5064709;28;20021;-78
2022/11/25 11:22:51;;;;;;;8.77;3.33;;;8.40;99.90;;;;;;5053424;28;20032;-78
2022/11/25 11:25:19;;;;;;;8.55;3.60;;;8.50;99.90;;;;;;5062351;28;20170;-78
2022/11/25 11:27:46;;;;;;;8.55;3.38;;;8.50;99.90;;;;;;5054140;28;20095;-78
2022/11/25 11:30:22;;;;;;;7.43;3.05;;;8.50;99.90;;;;;;5063200;28;20025;-78
2022/11/25 11:33:04;;;;;;;10.80;3.35;;;8.50;99.90;;;;;;5063666;28;20028;-78
2022/11/25 11:36:08;;;;;;;7.70;3.50;;;8.50;99.90;;;;;;5061078;28;20025;-80
2022/11/25 11:38:40;;;;;;;9.02;3.20;;;8.50;99.90;;;;;;5053162;28;20075;-80
2022/11/25 11:41:42;;;;;;;9.60;3.47;;;8.60;99.90;;;;;;5061277;28;20053;-78
2022/11/25 11:44:20;;;;;;;7.40;3.28;;;8.70;99.90;;;;;;5048930;28;20033;-79
2022/11/25 11:47:31;;;;;;;8.85;3.63;;;8.70;99.90;;;;;;5059216;28;20090;-79
2022/11/25 11:50:39;;;;;;;10.88;3.78;;;8.70;99.90;;;;;;5067110;28;20024;-80
2022/11/25 11:53:29;;;;;;;10.07;3.72;;;8.80;99.90;;;;;;5055155;28;20498;-82
2022/11/25 11:56:03;;;;;;;9.88;4.05;;;8.80;99.90;;;;;;5057687;28;20055;-83
2022/11/25 11:58:28;;;;;;;7.15;3.35;;;8.90;99.90;;;;;;5059944;28;20029;-82
2022/11/25 12:01:21;;;;;;;10.73;4.22;;;8.90;99.90;;;;;;5055888;28;20182;-81
2022/11/25 12:04:11;;;;;;;9.07;3.80;;;8.90;99.90;;;;;;5064323;28;20032;-82
2022/11/25 12:06:38;;;;;;;9.00;3.35;;;8.90;99.90;;;;;;5064738;28;20033;-79
2022/11/25 12:09:14;;;;;;;6.72;3.65;;;8.90;99.90;;;;;;5066618;28;20033;-80
2022/11/25 12:11:44;;;;;;;9.45;3.50;;;8.90;99.90;;;;;;5062155;28;20105;-80
2022/11/25 12:14:47;;;;;;;8.15;3.85;;;8.90;99.90;;;;;;5067331;28;20218;-80
2022/11/25 12:17:30;;;;;;;10.13;3.60;;;9.00;99.90;;;;;;5057872;28;20360;-80
2022/11/25 12:20:31;;;;;;;9.38;3.58;;;9.00;99.90;;;;;;5069766;28;20029;-78
2022/11/25 12:23:02;;;;;;;6.50;3.40;;;9.00;99.90;;;;;;5054992;28;20086;-78
2022/11/25 12:25:40;;;;;;;12.48;4.15;;;9.00;99.90;;;;;;5069281;28;20029;-81
2022/11/25 12:28:30;;;;;;;10.65;3.40;;;9.20;99.90;;;;;;5052519;28;20108;-79
2022/11/25 12:31:05;;;;;;;10.95;3.72;;;9.40;99.90;;;;;;5069953;28;20033;-81
2022/11/25 12:33:51;;;;;;;7.65;3.63;;;9.50;99.90;;;;;;5064946;28;20051;-79
2022/11/25 12:36:33;;;;;;;8.93;3.70;;;9.50;99.90;;;;;;5058676;28;20090;-81
2022/11/25 12:39:30;;;;;;;11.98;3.70;;;9.60;99.90;;;;;;5064943;28;20025;-81
2022/11/25 12:42:00;;;;;;;8.73;3.47;;;9.60;99.90;;;;;;5060909;28;20455;-80
2022/11/25 12:44:29;;;;;;;10.43;4.13;;;9.60;99.90;;;;;;5060865;28;20083;-81
2022/11/25 12:46:55;;;;;;;11.77;4.00;;;9.60;99.90;;;;;;5057324;28;20033;-81
2022/11/25 12:49:26;;;;;;;10.73;4.03;;;9.60;99.90;;;;;;5063649;28;20028;-81
2022/11/25 12:52:17;;;;;;;11.20;3.55;;;9.70;99.90;;;;;;5062133;28;20098;-80
2022/11/25 12:54:58;;;;;;;13.20;3.80;;;9.70;99.90;;;;;;5057755;28;20025;-81
2022/11/25 12:57:53;;;;;;;10.57;3.63;;;9.70;99.90;;;;;;5058649;28;20276;-81
2022/11/25 13:00:36;;;;;;;13.50;4.00;;;9.60;99.90;;;;;;5061759;28;20486;-81
2022/11/25 13:03:29;;;;;;;9.85;4.57;;;9.70;99.90;;;;;;5064282;28;20036;-81
2022/11/25 13:06:30;;;;;;;8.02;3.78;;;9.60;99.90;;;;;;5065625;28;20033;-80
2022/11/25 13:09:01;;;;;;;9.18;3.60;;;9.50;99.90;;;;;;5064560;28;20033;-81
2022/11/25 13:11:57;;;;;;;10.77;3.50;;;9.60;99.90;;;;;;5063229;28;20047;-81
2022/11/25 13:15:10;;;;;;;6.82;3.20;;;9.70;99.90;;;;;;5053993;28;20116;-81
2022/11/25 13:17:40;;;;;;;10.88;3.40;;;9.80;99.90;;;;;;5061356;28;20025;-80
2022/11/25 13:20:27;;;;;;;8.23;2.72;;;9.80;99.90;;;;;;5061737;28;20025;-80
2022/11/25 13:23:06;;;;;;;8.77;3.42;;;9.80;99.90;;;;;;5056252;28;20055;-80
2022/11/25 13:25:33;;;;;;;6.38;3.03;;;9.80;99.90;;;;;;5061431;28;20425;-81